Time;durP1;ratioP1;P1;durP2;ratioP2;P2;SDS_P1;SDS_P2;PMS_P1;PMS_P2;Temp;Humidity;BMP_temperature;BMP_pressure;BME280_temperature;BME280_humidity;BME280_pressure;Samples;Min_cycle;Max_cycle;Signal;HPM_P1;HPM_P2
2022/11/11 00:01:44;;;;;;;48.33;24.27;;;;;;;10.13;100.00;100538.19;4300962;81;28486;-77
2022/11/11 00:08:04;;;;;;;42.55;22.62;;;;;;;9.96;100.00;100545.16;4409413;80;28567;-76
2022/11/11 00:14:24;;;;;;;43.65;22.52;;;;;;;9.86;99.72;100558.87;4315945;81;28530;-77
2022/11/11 00:27:21;;;;;;;38.02;22.02;;;;;;;9.62;98.96;100563.56;4325635;81;28524;-77
2022/11/11 00:33:41;;;;;;;34.78;19.52;;;;;;;9.72;99.22;100567.28;4327281;81;28504;-77
2022/11/11 00:40:00;;;;;;;37.05;20.62;;;;;;;9.62;96.74;100570.77;4333151;80;28492;-77
2022/11/11 00:52:58;;;;;;;39.83;21.70;;;;;;;9.69;96.96;100578.41;4331888;81;28476;-77
2022/11/11 00:59:18;;;;;;;36.53;19.40;;;;;;;9.71;96.19;100580.39;4318868;81;28485;-77
2022/11/11 01:05:38;;;;;;;39.08;21.00;;;;;;;9.60;96.88;100580.88;4257620;81;28618;-75
2022/11/11 01:11:58;;;;;;;34.85;19.37;;;;;;;9.53;95.64;100563.83;4232889;81;28530;-75
2022/11/11 01:18:26;;;;;;;41.10;22.80;;;;;;;9.50;95.54;100562.37;4214931;82;28465;-75
2022/11/11 01:24:51;;;;;;;37.53;21.17;;;;;;;9.37;96.26;100564.86;4245995;82;28472;-78
2022/11/11 01:31:16;;;;;;;48.00;23.55;;;;;;;9.00;97.70;100569.62;4254314;83;28568;-78
2022/11/11 01:37:35;;;;;;;42.67;21.15;;;;;;;8.97;97.59;100556.58;4248564;81;28505;-78
2022/11/11 01:43:54;;;;;;;34.18;18.77;;;;;;;8.98;97.44;100557.39;4291122;81;28460;-78
2022/11/11 01:50:14;;;;;;;44.08;22.50;;;;;;;9.13;95.50;100560.09;4235528;82;28503;-78
2022/11/11 01:56:35;;;;;;;32.80;18.40;;;;;;;9.25;96.05;100561.83;4225538;82;28522;-78
2022/11/11 02:02:59;;;;;;;36.23;19.40;;;;;;;9.26;91.63;100566.17;4225558;81;28550;-78
2022/11/11 02:09:21;;;;;;;42.05;21.55;;;;;;;9.33;92.72;100571.13;4250136;81;28508;-79
2022/11/11 02:15:41;;;;;;;45.05;22.65;;;;;;;9.34;93.87;100583.53;4243133;81;28550;-78
2022/11/11 02:22:03;;;;;;;38.67;20.75;;;;;;;9.54;98.61;100570.37;4259654;83;28510;-78
2022/11/11 02:28:26;;;;;;;39.10;20.52;;;;;;;9.63;94.53;100574.62;4259527;83;28518;-78
2022/11/11 02:34:46;;;;;;;37.73;21.10;;;;;;;9.84;93.54;100581.57;4249254;83;28562;-79
2022/11/11 02:47:43;;;;;;;40.78;20.62;;;;;;;10.02;92.73;100584.69;4240943;81;28499;-78
2022/11/11 02:54:02;;;;;;;34.38;19.45;;;;;;;10.11;92.58;100588.11;4247275;81;28526;-76
2022/11/11 03:00:22;;;;;;;39.18;20.48;;;;;;;10.33;91.94;100597.54;4224633;81;28502;-77
2022/11/11 03:06:42;;;;;;;36.20;20.45;;;;;;;10.44;91.50;100605.12;4306234;81;28500;-77
2022/11/11 03:13:01;;;;;;;36.20;19.37;;;;;;;10.43;91.89;100600.78;4341789;81;28527;-77
2022/11/11 03:19:21;;;;;;;38.25;20.02;;;;;;;10.23;93.87;100592.45;4352368;81;28454;-77
2022/11/11 03:25:45;;;;;;;38.02;20.15;;;;;;;10.30;93.96;100594.71;4367367;80;28461;-78
2022/11/11 03:32:06;;;;;;;34.05;19.42;;;;;;;10.21;95.56;100591.81;4391612;80;28446;-79
2022/11/11 03:38:26;;;;;;;35.35;19.65;;;;;;;10.39;95.60;100590.03;4379059;80;28455;-79
2022/11/11 03:44:45;;;;;;;31.35;18.12;;;;;;;10.51;95.86;100595.77;4360631;80;28504;-78
2022/11/11 03:51:05;;;;;;;35.52;20.12;;;;;;;10.44;97.69;100595.71;4379448;80;28562;-79
2022/11/11 03:57:31;;;;;;;32.70;17.65;;;;;;;10.63;97.72;100587.19;4334543;80;28444;-78
2022/11/11 04:10:29;;;;;;;31.87;18.73;;;;;;;10.60;98.55;100599.16;4326362;81;28520;-77
2022/11/11 04:16:49;;;;;;;33.02;18.15;;;;;;;10.71;98.43;100596.47;4353382;81;28504;-77
2022/11/11 04:23:08;;;;;;;31.35;17.17;;;;;;;10.80;97.45;100586.39;4344515;80;28515;-78
2022/11/11 04:29:29;;;;;;;34.73;18.62;;;;;;;10.81;98.07;100583.52;4358703;81;28540;-78
2022/11/11 04:35:49;;;;;;;30.00;17.80;;;;;;;10.77;99.19;100574.16;4340340;80;28487;-78
2022/11/11 04:42:09;;;;;;;37.75;21.05;;;;;;;10.68;99.32;100582.89;4335155;81;28562;-76
2022/11/11 04:48:28;;;;;;;33.02;18.17;;;;;;;11.04;98.62;100581.59;4362441;80;28549;-77
2022/11/11 05:21:26;;;;;;;36.25;19.00;;;;;;;10.44;100.00;100619.06;4197377;83;28546;-76
2022/11/11 05:27:46;;;;;;;28.90;16.10;;;;;;;10.38;100.00;100612.56;4213762;83;28459;-78
2022/11/11 05:34:05;;;;;;;27.82;16.10;;;;;;;10.39;100.00;100633.58;4215184;83;28539;-77
2022/11/11 05:40:24;;;;;;;32.10;17.15;;;;;;;10.43;98.59;100641.11;4207209;83;28478;-77
2022/11/11 05:46:44;;;;;;;29.85;16.48;;;;;;;10.49;99.48;100644.89;4195164;83;28566;-75
2022/11/11 05:53:03;;;;;;;27.17;15.58;;;;;;;10.58;98.08;100635.67;4202744;83;28477;-75
2022/11/11 05:59:23;;;;;;;25.65;15.43;;;;;;;10.38;97.03;100652.90;4198859;83;28587;-74
2022/11/11 06:05:42;;;;;;;26.57;15.48;;;;;;;10.63;96.75;100661.16;4259099;80;28500;-74
2022/11/11 06:12:02;;;;;;;26.40;15.32;;;;;;;10.65;96.94;100663.13;4296172;80;28527;-77
2022/11/11 06:18:22;;;;;;;24.87;15.25;;;;;;;10.61;96.20;100669.41;4306963;80;28524;-76
2022/11/11 06:26:11;;;;;;;28.70;16.02;;;;;;;10.81;95.94;100670.11;4313542;80;28566;-75
2022/11/11 06:31:06;;;;;;;29.75;17.20;;;;;;;10.84;96.56;100658.98;4328404;80;28543;-77
2022/11/11 06:37:25;;;;;;;30.80;18.30;;;;;;;11.01;97.48;100654.98;4210682;82;28497;-72
2022/11/11 06:43:45;;;;;;;29.50;16.48;;;;;;;11.19;97.15;100668.98;4158517;83;28492;-72
2022/11/11 06:50:05;;;;;;;29.65;16.82;;;;;;;11.41;96.77;100661.70;4221755;82;28478;-72
2022/11/11 06:56:32;;;;;;;31.57;18.05;;;;;;;11.56;97.59;100654.86;4692651;74;66919;-75
2022/11/11 07:02:55;;;;;;;34.90;18.62;;;;;;;11.69;97.69;100661.66;4590339;76;28576;-76
2022/11/11 07:09:19;;;;;;;34.08;19.82;;;;;;;12.05;97.22;100671.12;4597460;75;28468;-75
2022/11/11 07:15:42;;;;;;;32.93;19.45;;;;;;;12.39;97.02;100661.27;4599359;76;28505;-76
2022/11/11 07:22:02;;;;;;;31.80;20.27;;;;;;;12.65;96.20;100672.64;4540790;77;28550;-77
2022/11/11 07:28:23;;;;;;;37.75;21.52;;;;;;;12.73;97.60;100663.52;4625178;75;28634;-82
2022/11/11 07:34:46;;;;;;;37.42;21.23;;;;;;;12.90;97.03;100649.10;4587372;75;28526;-81
2022/11/11 07:41:06;;;;;;;36.13;21.30;;;;;;;12.77;99.31;100650.45;4606223;75;28546;-74
2022/11/11 07:47:26;;;;;;;38.05;20.85;;;;;;;12.85;98.39;100646.71;4464233;78;28544;-76
2022/11/11 07:53:45;;;;;;;37.53;20.85;;;;;;;12.92;97.97;100647.05;4420124;78;28592;-76
2022/11/11 08:00:07;;;;;;;36.42;20.52;;;;;;;12.98;96.11;100654.84;4482154;78;28514;-75
2022/11/11 08:06:27;;;;;;;37.40;21.02;;;;;;;13.04;95.43;100632.39;4450237;78;28542;-76
2022/11/11 08:19:33;;;;;;;29.60;16.40;;;;;;;13.30;94.12;100614.52;4419074;78;28535;-74
2022/11/11 08:25:53;;;;;;;24.65;14.15;;;;;;;13.38;93.09;100614.80;4397977;79;28626;-77
2022/11/11 08:32:15;;;;;;;31.17;17.77;;;;;;;13.46;91.03;100625.93;4400163;80;28523;-75
2022/11/11 08:38:37;;;;;;;28.70;15.58;;;;;;;13.34;90.48;100635.19;4457496;78;28508;-74
2022/11/11 08:44:57;;;;;;;25.80;15.28;;;;;;;13.63;89.26;100631.70;4475963;78;28598;-77
2022/11/11 08:51:17;;;;;;;26.77;15.72;;;;;;;13.56;87.89;100643.07;4446781;78;28560;-75
2022/11/11 08:57:36;;;;;;;26.25;14.60;;;;;;;13.78;86.76;100654.42;4511533;77;29159;-75
2022/11/11 09:03:58;;;;;;;30.43;15.90;;;;;;;13.76;86.04;100655.17;4441351;78;28564;-73
2022/11/11 09:10:18;;;;;;;25.60;14.07;;;;;;;14.27;85.67;100642.70;4398900;79;28589;-74
2022/11/11 09:16:38;;;;;;;21.65;11.73;;;;;;;14.66;83.63;100643.19;4397071;79;28612;-74
2022/11/11 09:22:57;;;;;;;21.62;11.35;;;;;;;15.01;82.49;100625.97;4400216;79;28552;-73
2022/11/11 09:29:17;;;;;;;17.02;9.38;;;;;;;15.38;81.37;100612.20;4386726;79;28587;-74
2022/11/11 09:35:37;;;;;;;14.93;8.98;;;;;;;15.53;79.96;100626.20;4406949;80;28541;-73
2022/11/11 09:42:36;;;;;;;13.50;8.23;;;;;;;15.84;77.25;100637.95;4439201;78;28598;-74
2022/11/11 09:49:29;;;;;;;14.95;7.53;;;;;;;15.86;74.84;100630.41;4444770;78;28586;-74
2022/11/11 09:56:02;;;;;;;11.43;7.50;;;;;;;15.96;74.13;100642.64;4514461;77;28494;-74
2022/11/11 10:02:36;;;;;;;13.10;7.22;;;;;;;15.97;75.26;100631.58;4447312;78;28584;-73
2022/11/11 10:09:26;;;;;;;12.43;6.72;;;;;;;15.71;73.33;100638.92;4449698;78;28505;-75
2022/11/11 10:16:15;;;;;;;15.18;7.03;;;;;;;15.81;72.25;100643.84;4418166;80;28529;-72
2022/11/11 10:22:54;;;;;;;14.23;6.83;;;;;;;16.36;71.10;100633.17;4448631;78;28586;-75
2022/11/11 10:29:19;;;;;;;12.70;6.95;;;;;;;16.82;70.25;100611.25;4424198;78;28539;-76
2022/11/11 10:35:41;;;;;;;12.82;7.58;;;;;;;16.43;71.02;100629.29;4456226;78;28583;-75
2022/11/11 10:42:01;;;;;;;16.97;8.05;;;;;;;16.43;70.57;100619.79;4411450;78;28490;-73
2022/11/11 10:48:27;;;;;;;14.07;7.60;;;;;;;16.44;71.27;100618.73;4430914;78;28587;-73
2022/11/11 10:54:58;;;;;;;11.80;6.80;;;;;;;16.60;70.33;100625.89;4451738;78;28548;-73
2022/11/11 11:01:47;;;;;;;10.43;6.55;;;;;;;16.56;69.43;100611.98;4407768;78;28491;-74
2022/11/11 11:08:10;;;;;;;13.53;7.90;;;;;;;17.24;68.36;100606.81;4499557;77;28556;-74
2022/11/11 11:14:35;;;;;;;14.58;7.37;;;;;;;17.57;67.84;100595.83;4523514;77;28478;-74
2022/11/11 11:21:07;;;;;;;13.13;7.72;;;;;;;18.02;67.56;100582.04;4490943;77;28549;-73
2022/11/11 11:27:27;;;;;;;13.80;6.50;;;;;;;18.02;65.43;100584.76;4458155;78;28587;-73
2022/11/11 11:34:07;;;;;;;12.35;5.92;;;;;;;18.29;65.00;100575.20;4484610;78;28564;-73
2022/11/11 11:40:52;;;;;;;10.72;5.80;;;;;;;18.31;62.26;100572.53;4277994;82;28556;-73
2022/11/11 11:47:17;;;;;;;11.97;5.53;;;;;;;18.34;62.01;100554.33;4284509;80;28557;-74
2022/11/11 11:54:04;;;;;;;9.83;5.50;;;;;;;18.32;62.19;100553.77;4250642;82;28522;-75
2022/11/11 12:00:34;;;;;;;12.45;5.60;;;;;;;18.67;61.29;100573.13;4215047;83;28596;-74
2022/11/11 12:07:31;;;;;;;12.43;6.35;;;;;;;18.70;60.17;100573.17;4159204;84;28614;-74
2022/11/11 12:14:38;;;;;;;10.18;5.67;;;;;;;18.62;60.09;100567.61;4173795;84;28531;-74
2022/11/11 12:21:14;;;;;;;;;;;;;;;18.66;60.20;100567.94;4167302;84;28606;-73
2022/11/11 12:27:56;;;;;;;10.55;5.15;;;;;;;18.35;59.12;100572.31;4158499;84;20244;-74
2022/11/11 12:34:51;;;;;;;8.15;3.80;;;;;;;18.44;59.98;100552.86;4138356;84;28517;-74
2022/11/11 12:41:34;;;;;;;9.28;3.87;;;;;;;18.34;59.87;100534.47;4139985;84;28567;-75
2022/11/11 12:48:21;;;;;;;8.70;3.80;;;;;;;18.36;60.59;100539.13;4143894;84;28546;-74
2022/11/11 12:55:09;;;;;;;8.68;3.77;;;;;;;18.47;60.31;100562.73;4147086;84;28528;-74
2022/11/11 13:02:13;;;;;;;7.27;3.57;;;;;;;18.26;59.85;100542.48;4156571;84;28557;-74
2022/11/11 13:09:03;;;;;;;7.37;3.27;;;;;;;18.08;60.34;100547.09;4160249;84;28645;-73
2022/11/11 13:15:26;;;;;;;7.67;3.42;;;;;;;18.22;60.95;100531.80;4223052;83;28598;-74
2022/11/11 13:21:53;;;;;;;7.17;3.85;;;;;;;18.20;60.65;100539.39;4214233;83;28648;-74
2022/11/11 13:28:30;;;;;;;7.58;3.35;;;;;;;18.04;61.43;100529.58;4158249;84;28538;-74
2022/11/11 13:34:53;;;;;;;8.75;3.80;;;;;;;18.15;61.02;100537.41;4146490;84;28619;-74
2022/11/11 13:41:30;;;;;;;8.40;3.72;;;;;;;17.79;61.26;100536.70;4180725;84;28538;-74
2022/11/11 13:47:53;;;;;;;9.05;3.75;;;;;;;17.81;61.47;100520.44;4238186;83;28530;-74
2022/11/11 13:54:31;;;;;;;11.15;4.17;;;;;;;17.80;61.91;100520.66;4231376;83;28525;-74
2022/11/11 14:01:05;;;;;;;8.70;4.37;;;;;;;17.59;62.58;100522.98;4154029;84;28547;-73
2022/11/11 14:07:48;;;;;;;8.25;4.47;;;;;;;17.52;63.36;100520.41;4165316;84;28505;-77
2022/11/11 14:14:37;;;;;;;10.23;5.65;;;;;;;17.00;64.72;100536.99;4215748;84;28554;-76
2022/11/11 14:20:58;;;;;;;10.88;5.00;;;;;;;16.97;65.39;100523.86;4252295;82;28557;-76
2022/11/11 14:27:29;;;;;;;11.53;5.25;;;;;;;16.79;66.06;100537.56;4240052;83;28558;-77
2022/11/11 14:34:18;;;;;;;10.72;5.10;;;;;;;16.84;66.26;100541.22;4203980;83;28536;-72
2022/11/11 14:40:38;;;;;;;13.58;5.80;;;;;;;16.73;66.85;100555.63;4215342;83;28543;-72
2022/11/11 14:47:18;;;;;;;11.88;5.53;;;;;;;16.57;67.44;100554.42;4232941;83;28556;-73
2022/11/11 14:53:40;;;;;;;13.20;6.00;;;;;;;16.63;67.56;100552.66;4256352;81;28544;-72
2022/11/11 15:00:04;;;;;;;12.98;6.00;;;;;;;16.55;67.83;100549.22;4249267;82;28523;-73
2022/11/11 15:06:44;;;;;;;13.75;5.42;;;;;;;16.14;69.52;100553.60;4242568;82;28630;-72
2022/11/11 15:13:31;;;;;;;11.55;5.35;;;;;;;16.06;69.46;100560.19;4237194;84;28593;-73
2022/11/11 15:20:20;;;;;;;12.00;5.25;;;;;;;15.88;70.24;100561.88;4232606;82;28554;-72
2022/11/11 15:27:03;;;;;;;11.15;4.85;;;;;;;16.10;69.54;100555.13;4261746;82;28577;-82
2022/11/11 15:33:48;;;;;;;10.93;5.22;;;;;;;15.82;70.40;100559.23;4278746;83;28597;-84
2022/11/11 15:40:20;;;;;;;11.28;5.10;;;;;;;15.66;71.27;100568.81;4241770;82;28550;-87
2022/11/11 15:46:42;;;;;;;12.93;5.42;;;;;;;15.79;70.83;100555.63;4173377;85;28482;-89
2022/11/11 15:53:03;;;;;;;10.63;4.90;;;;;;;15.55;71.20;100573.94;4175739;84;28560;-88
2022/11/11 15:59:26;;;;;;;10.40;5.00;;;;;;;15.41;71.64;100575.16;4242811;83;28498;-80
2022/11/11 16:05:47;;;;;;;11.55;5.30;;;;;;;15.25;72.80;100580.10;4240350;83;28583;-88
2022/11/11 16:12:10;;;;;;;9.40;5.22;;;;;;;15.21;73.51;100587.58;4244662;84;28580;-85
2022/11/11 16:18:35;;;;;;;9.48;5.42;;;;;;;14.98;74.50;100587.66;4241753;84;28548;-84
2022/11/11 16:25:01;;;;;;;9.63;5.20;;;;;;;15.00;73.59;100579.63;4241709;84;28500;-85
2022/11/11 16:31:38;;;;;;;12.60;5.58;;;;;;;14.85;74.25;100580.51;4239979;84;28613;-85
2022/11/11 16:38:02;;;;;;;14.07;6.83;;;;;;;14.56;75.70;100572.77;4242657;84;28540;-84
2022/11/11 16:44:37;;;;;;;15.40;7.60;;;;;;;14.28;77.55;100567.27;4239495;84;28582;-88
2022/11/11 16:51:06;;;;;;;17.60;8.00;;;;;;;14.40;77.47;100570.08;4217055;84;28552;-84
2022/11/11 16:57:32;;;;;;;17.98;9.58;;;;;;;14.63;77.02;100574.06;4238864;84;28527;-82
2022/11/11 17:04:00;;;;;;;22.25;11.55;;;;;;;14.49;77.66;100582.30;4241972;83;28505;-83
2022/11/11 17:10:22;;;;;;;24.30;11.97;;;;;;;14.55;78.36;100579.78;4241693;83;28572;-83
2022/11/11 17:16:42;;;;;;;26.82;12.88;;;;;;;14.42;78.88;100586.95;4221321;84;28486;-86
2022/11/11 17:23:05;;;;;;;23.87;13.48;;;;;;;14.36;80.07;100586.45;4242740;84;28541;-88
2022/11/11 17:29:24;;;;;;;22.73;12.45;;;;;;;14.50;79.16;100581.24;4242132;84;28531;-86
2022/11/11 17:35:56;;;;;;;27.55;13.93;;;;;;;14.52;79.00;100576.98;4245232;84;28508;-90
2022/11/11 17:42:13;;;;;;;25.82;13.25;;;;;;;14.61;78.76;100581.59;4243487;83;28536;-78
2022/11/11 17:49:14;;;;;;;29.65;13.90;;;;;;;14.55;79.29;100579.78;4282026;83;28472;-84
2022/11/11 17:56:06;;;;;;;25.30;14.43;;;;;;;14.56;79.21;100579.53;4259590;83;28526;-86
2022/11/11 18:02:52;;;;;;;30.10;15.70;;;;;;;14.46;79.79;100573.27;4306673;80;28533;-85
2022/11/11 18:09:11;;;;;;;33.25;15.50;;;;;;;14.32;80.53;100582.00;4244409;83;28595;-85
2022/11/11 18:23:06;;;;;;;;;;;;;;;;;;;;;
2022/11/11 18:37:07;;;;;;;34.15;17.70;;;;;;;14.25;81.39;100588.50;4041327;87;28524;-90
2022/11/11 18:43:39;;;;;;;31.45;16.20;;;;;;;14.25;81.33;100593.37;4153768;83;28525;-84
2022/11/11 18:49:57;;;;;;;35.05;16.85;;;;;;;14.22;81.56;100597.36;4218240;83;28468;-86
2022/11/11 18:56:20;;;;;;;29.57;15.40;;;;;;;14.27;81.52;100605.34;4194202;84;28564;-87
2022/11/11 19:02:40;;;;;;;29.87;16.27;;;;;;;14.25;81.34;100601.48;4195564;84;28586;-87
2022/11/11 19:09:31;;;;;;;;;;;;;;;;;;;;;
2022/11/11 19:15:42;;;;;;;31.52;16.90;;;;;;;14.34;81.03;100604.25;4186337;85;28484;-81
2022/11/11 19:22:17;;;;;;;32.67;15.90;;;;;;;14.20;81.99;100611.61;4245753;83;28502;-87
2022/11/11 19:28:39;;;;;;;31.70;16.07;;;;;;;14.20;81.93;100620.27;4220209;84;28534;-82
2022/11/11 19:34:59;;;;;;;29.15;15.38;;;;;;;14.10;82.53;100624.77;4273624;83;28550;-79
2022/11/11 19:41:24;;;;;;;31.65;15.80;;;;;;;14.07;82.54;100625.20;4245630;82;28502;-84
2022/11/11 19:47:50;;;;;;;29.32;15.68;;;;;;;14.16;82.06;100622.56;4264752;82;28603;-81
2022/11/11 19:54:10;;;;;;;32.35;15.53;;;;;;;14.19;81.83;100642.95;4267019;83;28537;-81
2022/11/11 20:00:32;;;;;;;37.35;15.40;;;;;;;14.08;82.31;100641.73;4266514;82;28942;-82
2022/11/11 20:06:52;;;;;;;29.90;15.08;;;;;;;14.20;81.64;100645.42;4258338;82;28614;-79
2022/11/11 20:13:14;;;;;;;30.37;13.58;;;;;;;14.10;81.56;100641.00;4221131;82;28653;-78
2022/11/11 20:19:35;;;;;;;33.40;15.75;;;;;;;14.08;82.07;100628.22;4221872;82;28585;-77
2022/11/11 20:25:56;;;;;;;39.20;19.20;;;;;;;13.88;83.57;100626.42;4119653;85;28604;-80
2022/11/11 20:32:16;;;;;;;44.40;25.05;;;;;;;13.82;82.93;100629.16;4225758;83;28537;-79
2022/11/11 20:38:37;;;;;;;51.25;26.75;;;;;;;13.75;84.08;100625.97;4226902;81;28554;-75
2022/11/11 20:44:58;;;;;;;48.48;26.20;;;;;;;13.44;85.41;100630.22;4293374;81;28562;-78
2022/11/11 20:51:24;;;;;;;51.80;26.90;;;;;;;13.36;84.99;100635.80;4293688;82;28584;-74
2022/11/11 20:57:43;;;;;;;49.10;27.30;;;;;;;13.27;85.25;100636.52;4292912;82;28540;-72
2022/11/11 21:04:04;;;;;;;52.05;27.42;;;;;;;13.09;85.76;100635.31;4293966;81;28604;-76
2022/11/11 21:10:24;;;;;;;53.70;27.27;;;;;;;13.09;86.59;100628.56;4271115;82;28582;-83
2022/11/11 21:16:43;;;;;;;51.95;27.80;;;;;;;12.87;88.32;100639.27;4187616;83;28500;-79
2022/11/11 21:23:03;;;;;;;52.20;28.38;;;;;;;12.85;88.60;100630.02;4216460;84;28499;-81
2022/11/11 21:29:23;;;;;;;50.92;26.05;;;;;;;12.66;89.08;100628.44;4270082;82;28538;-79
2022/11/11 21:35:43;;;;;;;50.25;25.48;;;;;;;12.74;89.79;100627.93;4241566;84;28515;-79
2022/11/11 21:42:04;;;;;;;45.70;24.00;;;;;;;12.58;90.69;100639.41;4236658;83;28551;-83
2022/11/11 21:48:24;;;;;;;46.60;23.07;;;;;;;12.68;89.69;100633.63;4356971;82;28540;-87
2022/11/11 21:54:46;;;;;;;40.67;22.27;;;;;;;12.62;89.68;100636.64;4290359;82;28515;-82
2022/11/11 22:01:17;;;;;;;41.88;21.52;;;;;;;12.60;89.69;100640.06;4312875;81;28519;-81
2022/11/11 22:07:37;;;;;;;36.85;19.07;;;;;;;12.53;89.99;100642.72;4313230;81;28514;-82
2022/11/11 22:14:00;;;;;;;36.90;18.90;;;;;;;12.58;89.65;100645.34;4290154;81;28520;-82
2022/11/11 22:20:21;;;;;;;36.90;18.42;;;;;;;12.40;90.95;100660.23;4293614;82;28638;-81
2022/11/11 22:26:42;;;;;;;34.48;18.45;;;;;;;12.61;89.87;100664.66;4312601;82;28497;-81
2022/11/11 22:33:02;;;;;;;34.43;17.98;;;;;;;12.77;88.96;100653.99;4313031;81;28505;-80
2022/11/11 22:39:25;;;;;;;33.45;17.77;;;;;;;12.48;90.11;100655.16;4313693;81;28597;-80
2022/11/11 22:45:58;;;;;;;36.40;18.52;;;;;;;12.53;89.52;100651.35;4316843;82;28560;-81
2022/11/11 22:52:18;;;;;;;33.65;19.23;;;;;;;12.22;90.70;100648.14;4362719;80;28506;-78
2022/11/11 22:58:43;;;;;;;38.00;19.15;;;;;;;12.30;90.31;100651.20;4317153;82;28492;-79
2022/11/11 23:05:05;;;;;;;35.65;18.48;;;;;;;12.24;90.77;100646.09;4296581;83;28551;-84
2022/11/11 23:11:30;;;;;;;32.88;17.85;;;;;;;12.27;89.54;100640.80;4316127;80;28506;-80
2022/11/11 23:17:57;;;;;;;34.10;17.90;;;;;;;12.26;88.94;100645.88;4224072;84;28560;-81
2022/11/11 23:24:19;;;;;;;;;;;;;;;12.32;88.42;100642.89;4294405;82;28503;-82
2022/11/11 23:30:39;;;;;;;31.75;17.27;;;;;;;12.27;87.76;100646.19;4224153;84;20183;-81
2022/11/11 23:36:58;;;;;;;37.73;19.65;;;;;;;12.15;88.26;100643.27;4288433;82;28555;-83
2022/11/11 23:43:18;;;;;;;37.63;19.10;;;;;;;12.02;89.40;100642.69;4185798;84;28527;-81
2022/11/11 23:49:38;;;;;;;39.03;20.17;;;;;;;12.01;89.67;100635.61;4206453;84;28543;-80
2022/11/11 23:55:58;;;;;;;38.78;20.57;;;;;;;11.78;89.98;100648.88;4208597;84;28555;-81
